createdAt,value
2017-12-28T21:49:50.465Z,4.12
2017-12-28T21:50:17.147Z,4.13
2017-12-28T21:50:43.252Z,4.08
2017-12-28T21:51:09.414Z,4.12
2017-12-28T21:51:35.513Z,4.12
2017-12-28T21:52:01.641Z,4.1
2017-12-28T21:52:27.773Z,4.12
2017-12-28T21:52:53.867Z,4.06
2017-12-28T21:53:19.956Z,4.13
2017-12-28T21:53:46.331Z,4.16
2017-12-28T21:54:12.775Z,4.14
2017-12-28T21:54:38.886Z,4.19
2017-12-28T21:55:05.072Z,4.2
2017-12-28T21:55:31.569Z,4.14
2017-12-28T21:55:57.809Z,4.19
2017-12-28T21:56:24.037Z,4.22
2017-12-28T21:56:50.269Z,4.3
2017-12-28T21:57:16.481Z,4.34
2017-12-28T21:57:42.659Z,4.34
2017-12-28T21:58:08.908Z,4.24
2017-12-28T21:58:35.051Z,4.32
2017-12-28T21:59:01.483Z,4.38
2017-12-28T21:59:27.686Z,4.4
2017-12-28T21:59:53.934Z,4.4
2017-12-28T22:00:20.133Z,4.45
2017-12-28T22:00:46.321Z,4.45
2017-12-28T22:01:12.609Z,4.49
2017-12-28T22:01:38.824Z,4.42
2017-12-28T22:02:05.163Z,4.49
2017-12-28T22:02:31.317Z,4.49
2017-12-28T22:02:57.611Z,4.53
2017-12-28T22:03:23.797Z,4.58
2017-12-28T22:03:50.051Z,4.56
2017-12-28T22:04:16.240Z,4.53
2017-12-28T22:04:42.458Z,4.63
2017-12-28T22:05:08.606Z,4.71
2017-12-28T22:05:34.713Z,4.59
2017-12-28T22:06:00.831Z,4.63
2017-12-28T22:06:26.926Z,4.71
2017-12-28T22:06:53.103Z,4.66
2017-12-28T22:07:19.228Z,4.66
2017-12-28T22:07:45.323Z,4.68
2017-12-28T22:08:11.427Z,4.71
2017-12-28T22:08:37.522Z,4.68
2017-12-28T22:09:03.645Z,4.7
2017-12-28T22:09:29.756Z,4.77
2017-12-28T22:09:55.866Z,4.82
2017-12-28T22:10:21.958Z,4.82
2017-12-28T22:10:48.062Z,4.93
2017-12-28T22:11:14.167Z,4.93
2017-12-28T22:11:40.277Z,5
2017-12-28T22:12:06.384Z,5.05
2017-12-28T22:12:32.478Z,4.9
2017-12-28T22:12:58.577Z,5.05
2017-12-28T22:13:24.680Z,4.96
2017-12-28T22:13:50.774Z,4.99
2017-12-28T22:14:16.872Z,5.07
2017-12-28T22:14:42.976Z,5.07
2017-12-28T22:15:09.073Z,5.14
2017-12-28T22:15:35.173Z,5.04
2017-12-28T22:16:01.275Z,5.1
2017-12-28T22:16:27.378Z,5.11
2017-12-28T22:16:53.473Z,5.15
2017-12-28T22:17:19.568Z,5.11
2017-12-28T22:17:45.673Z,5.12
2017-12-28T22:18:11.770Z,5.02
2017-12-28T22:18:37.876Z,5.07
2017-12-28T22:19:03.990Z,5.07
2017-12-28T22:19:30.090Z,5.05
2017-12-28T22:19:56.188Z,5.02
2017-12-28T22:20:22.288Z,5.08
2017-12-28T22:20:48.382Z,5.11
2017-12-28T22:21:14.503Z,5.11
2017-12-28T22:21:40.602Z,5.08
2017-12-28T22:22:06.701Z,5
2017-12-28T22:22:32.807Z,5.04
2017-12-28T22:22:58.906Z,5.14
2017-12-28T22:23:25.006Z,5.11
2017-12-28T22:23:51.110Z,5.05
2017-12-28T22:24:17.205Z,5.17
2017-12-28T22:24:43.309Z,5.11
2017-12-28T22:25:09.409Z,5.2
2017-12-28T22:25:35.506Z,5.14
2017-12-28T22:26:01.611Z,5.18
2017-12-28T22:26:27.708Z,5.2
2017-12-28T22:26:53.805Z,5.14
2017-12-28T22:27:19.910Z,5.21
2017-12-28T22:27:46.005Z,5.07
2017-12-28T22:28:12.112Z,5.15
2017-12-28T22:28:38.214Z,5.1
2017-12-28T22:29:04.314Z,5.15
2017-12-28T22:29:30.419Z,5.14
2017-12-28T22:29:56.512Z,5.1
2017-12-28T22:30:22.617Z,5.17
2017-12-28T22:30:48.711Z,5.25
2017-12-28T22:31:14.811Z,5.23
2017-12-28T22:31:40.913Z,5.17
2017-12-28T22:32:07.035Z,5.2
2017-12-28T22:32:33.130Z,5.21
2017-12-28T22:32:59.230Z,5.23
2017-12-28T22:33:25.336Z,5.21
2017-12-28T22:33:51.430Z,5.21
2017-12-28T22:34:17.535Z,5.25
2017-12-28T22:34:43.645Z,5.15
2017-12-28T22:35:09.746Z,5.21
2017-12-28T22:35:35.863Z,5.26
2017-12-28T22:36:01.968Z,5.3
2017-12-28T22:36:28.114Z,5.17
2017-12-28T22:36:54.209Z,5.26
2017-12-28T22:37:20.310Z,5.2
2017-12-28T22:37:46.655Z,5.26
2017-12-28T22:38:12.726Z,5.3
2017-12-28T22:38:38.848Z,5.3
2017-12-28T22:39:05.002Z,5.36
2017-12-28T22:39:31.135Z,5.3
2017-12-28T22:39:57.311Z,5.29
2017-12-28T22:40:23.489Z,5.36
2017-12-28T22:40:49.661Z,5.3
2017-12-28T22:41:15.765Z,5.35
2017-12-28T22:41:41.859Z,5.38
2017-12-28T22:42:07.965Z,5.32
2017-12-28T22:42:34.070Z,5.32
2017-12-28T22:43:00.172Z,5.26
2017-12-28T22:43:26.270Z,5.28
2017-12-28T22:43:52.365Z,5.17
2017-12-28T22:44:18.466Z,5.12
2017-12-28T22:44:44.562Z,5.11
2017-12-28T22:45:10.691Z,5.21
2017-12-28T22:45:36.781Z,5.14
2017-12-28T22:46:02.885Z,5.17
2017-12-28T22:46:28.981Z,5.23
2017-12-28T22:46:55.082Z,5.36
2017-12-28T22:47:21.186Z,5.35
2017-12-28T22:47:47.283Z,5.33
2017-12-28T22:48:13.385Z,5.28
2017-12-28T22:48:39.488Z,5.36
2017-12-28T22:49:05.584Z,5.39
2017-12-28T22:49:31.680Z,5.36
2017-12-28T22:49:57.780Z,5.46
2017-12-28T22:50:23.879Z,5.39
2017-12-28T22:50:49.984Z,5.39
2017-12-28T22:51:16.085Z,5.5
2017-12-28T22:51:42.204Z,5.59
2017-12-28T22:52:08.306Z,5.64
2017-12-28T22:52:34.402Z,5.59
2017-12-28T22:53:00.503Z,5.54
2017-12-28T22:53:26.603Z,5.47
2017-12-28T22:53:52.698Z,5.33
2017-12-28T22:54:18.802Z,5.39
2017-12-28T22:54:44.900Z,5.54
2017-12-28T22:55:11.003Z,5.62
2017-12-28T22:55:37.106Z,5.68
2017-12-28T22:56:03.207Z,5.72
2017-12-28T22:56:29.309Z,5.68
2017-12-28T22:56:55.404Z,5.68
2017-12-28T22:57:21.507Z,5.64
2017-12-28T22:57:47.607Z,5.66
2017-12-28T22:58:13.707Z,5.66
2017-12-28T22:58:39.802Z,5.64
2017-12-28T22:59:05.901Z,5.64
2017-12-28T22:59:32.007Z,5.56
2017-12-28T22:59:58.107Z,5.57
2017-12-28T23:00:24.210Z,5.39
2017-12-28T23:00:50.314Z,5.46
2017-12-28T23:01:16.408Z,5.5
2017-12-28T23:01:42.515Z,5.38
2017-12-28T23:02:08.609Z,5.39
2017-12-28T23:02:34.710Z,5.36
2017-12-28T23:03:00.812Z,5.33
2017-12-28T23:03:26.910Z,5.38
2017-12-28T23:03:53.012Z,5.36
2017-12-28T23:04:19.114Z,5.54
2017-12-28T23:04:45.231Z,5.46
2017-12-28T23:05:11.326Z,5.33
2017-12-28T23:05:37.422Z,5.3
2017-12-28T23:06:03.520Z,5.36
2017-12-28T23:06:29.624Z,5.29
2017-12-28T23:06:55.726Z,5.3
2017-12-28T23:07:21.828Z,5.38
2017-12-28T23:07:47.957Z,5.39
2017-12-28T23:08:14.060Z,5.36
2017-12-28T23:08:40.156Z,5.32
2017-12-28T23:09:06.263Z,5.32
2017-12-28T23:09:32.366Z,5.3
2017-12-28T23:09:58.464Z,5.33
2017-12-28T23:10:24.565Z,5.32
2017-12-28T23:10:50.663Z,5.21
2017-12-28T23:11:16.768Z,5.21
2017-12-28T23:11:42.862Z,5.21
2017-12-28T23:12:08.986Z,5.18
2017-12-28T23:12:35.080Z,5.12
2017-12-28T23:13:01.196Z,5.07
2017-12-28T23:13:27.298Z,5.18
2017-12-28T23:13:53.398Z,5.17
2017-12-28T23:14:19.517Z,5.2
2017-12-28T23:14:45.614Z,5.25
2017-12-28T23:15:11.721Z,5.32
2017-12-28T23:15:37.822Z,5.29
2017-12-28T23:16:03.918Z,5.3
2017-12-28T23:16:30.049Z,5.25
2017-12-28T23:16:56.120Z,5.25
2017-12-28T23:17:22.224Z,5.26
2017-12-28T23:17:48.326Z,5.17
2017-12-28T23:18:14.421Z,5.14
2017-12-28T23:18:40.527Z,5.21
2017-12-28T23:19:06.624Z,5.08
2017-12-28T23:19:32.727Z,5.25
2017-12-28T23:19:58.822Z,5.2
2017-12-28T23:20:24.929Z,5.21
2017-12-28T23:20:51.028Z,5.28
2017-12-28T23:21:17.133Z,5.18
2017-12-28T23:21:43.233Z,5.21
2017-12-28T23:22:09.331Z,5.11
2017-12-28T23:22:35.434Z,5.18
2017-12-28T23:23:01.534Z,5.29
2017-12-28T23:23:27.634Z,5.14
2017-12-28T23:23:53.745Z,5.21
2017-12-28T23:24:19.853Z,5.17
2017-12-28T23:24:45.984Z,5.14
2017-12-28T23:25:12.166Z,5.26
2017-12-28T23:25:38.343Z,5.3
2017-12-28T23:26:04.523Z,5.23
2017-12-28T23:26:30.661Z,5.28
2017-12-28T23:26:56.756Z,5.29
2017-12-28T23:27:22.877Z,5.29
2017-12-28T23:27:48.981Z,5.33
2017-12-28T23:28:15.081Z,5.41
2017-12-28T23:28:41.186Z,5.43
2017-12-28T23:29:07.281Z,5.32
2017-12-28T23:29:33.382Z,5.28
2017-12-28T23:29:59.486Z,5.28
2017-12-28T23:30:25.583Z,5.26
2017-12-28T23:30:51.693Z,5.32
2017-12-28T23:31:17.788Z,5.28
2017-12-28T23:31:43.885Z,5.29
2017-12-28T23:32:09.985Z,5.29
2017-12-28T23:32:36.097Z,5.26
2017-12-28T23:33:02.196Z,5.21
2017-12-28T23:33:28.304Z,5.2
2017-12-28T23:33:54.407Z,5.2
2017-12-28T23:34:20.500Z,5.21
2017-12-28T23:34:46.607Z,5.18
2017-12-28T23:35:12.709Z,5.17
2017-12-28T23:35:38.807Z,5.21
2017-12-28T23:36:04.923Z,5.25
2017-12-28T23:36:31.026Z,5.26
2017-12-28T23:36:57.132Z,5.23
2017-12-28T23:37:23.222Z,5.2
2017-12-28T23:37:49.321Z,5.11
2017-12-28T23:38:15.430Z,5.25
2017-12-28T23:38:41.529Z,5.28
2017-12-28T23:39:07.630Z,5.38
2017-12-28T23:39:33.732Z,5.3
2017-12-28T23:39:59.826Z,5.35
2017-12-28T23:40:25.935Z,5.36
2017-12-28T23:40:52.038Z,5.39
2017-12-28T23:41:18.134Z,5.41
2017-12-28T23:41:44.240Z,5.46
2017-12-28T23:42:10.337Z,5.33
2017-12-28T23:42:36.442Z,5.36
2017-12-28T23:43:02.538Z,5.3
2017-12-28T23:43:28.637Z,5.3
2017-12-28T23:43:54.740Z,5.33
2017-12-28T23:44:20.841Z,5.29
2017-12-28T23:44:46.937Z,5.38
2017-12-28T23:45:13.037Z,5.35
2017-12-28T23:45:39.141Z,5.43
2017-12-28T23:46:05.240Z,5.44
2017-12-28T23:46:31.369Z,5.46
2017-12-28T23:46:57.467Z,5.32
2017-12-28T23:47:23.578Z,5.35
2017-12-28T23:47:49.693Z,5.38
2017-12-28T23:48:15.794Z,5.39
2017-12-28T23:48:41.892Z,5.39
2017-12-28T23:49:07.993Z,5.41
2017-12-28T23:49:34.115Z,5.39
2017-12-28T23:50:00.211Z,5.38
2017-12-28T23:50:26.316Z,5.39
2017-12-28T23:50:52.414Z,5.36
2017-12-28T23:51:18.513Z,5.38
2017-12-28T23:51:44.614Z,5.39
2017-12-28T23:52:10.714Z,5.39
2017-12-28T23:52:36.820Z,5.36
2017-12-28T23:53:02.938Z,5.39
2017-12-28T23:53:29.061Z,5.43
2017-12-28T23:53:55.161Z,5.35
2017-12-28T23:54:21.257Z,5.35
2017-12-28T23:54:47.370Z,5.44
2017-12-28T23:55:13.462Z,5.3
2017-12-28T23:55:39.566Z,5.38
2017-12-28T23:56:05.669Z,5.39
2017-12-28T23:56:31.766Z,5.38
2017-12-28T23:56:57.863Z,5.44
2017-12-28T23:57:23.963Z,5.29
2017-12-28T23:57:50.060Z,5.2
2017-12-28T23:58:16.161Z,5.17
2017-12-28T23:58:42.266Z,5.18
2017-12-28T23:59:08.370Z,5.2
2017-12-28T23:59:34.471Z,5.21
